sensor_id;sensor_type;location;lat;lon;timestamp;P1;durP1;ratioP1;P2;durP2;ratioP2
60336;SDS011;46978;50.288;28.624;2022-11-14T00:00:18;17.72;;;7.46;;
60336;SDS011;46978;50.288;28.624;2022-11-14T00:01:20;15.84;;;7.28;;
60336;SDS011;46978;50.288;28.624;2022-11-14T00:02:22;16.71;;;8.60;;
60336;SDS011;46978;50.288;28.624;2022-11-14T00:03:23;14.11;;;6.50;;
60336;SDS011;46978;50.288;28.624;2022-11-14T00:04:25;13.46;;;7.34;;
60336;SDS011;46978;50.288;28.624;2022-11-14T00:05:27;16.93;;;8.87;;
60336;SDS011;46978;50.288;28.624;2022-11-14T00:06:29;15.69;;;8.05;;
60336;SDS011;46978;50.288;28.624;2022-11-14T00:07:32;14.16;;;7.19;;
60336;SDS011;46978;50.288;28.624;2022-11-14T00:08:35;12.30;;;6.47;;
60336;SDS011;46978;50.288;28.624;2022-11-14T00:09:37;14.36;;;7.46;;
60336;SDS011;46978;50.288;28.624;2022-11-14T00:10:38;14.65;;;7.30;;
60336;SDS011;46978;50.288;28.624;2022-11-14T00:11:40;13.89;;;6.61;;
60336;SDS011;46978;50.288;28.624;2022-11-14T00:12:42;13.17;;;6.44;;
60336;SDS011;46978;50.288;28.624;2022-11-14T00:13:44;11.45;;;6.50;;
60336;SDS011;46978;50.288;28.624;2022-11-14T00:14:45;13.33;;;6.59;;
60336;SDS011;46978;50.288;28.624;2022-11-14T00:15:47;14.66;;;6.87;;
60336;SDS011;46978;50.288;28.624;2022-11-14T00:16:50;15.89;;;7.03;;
60336;SDS011;46978;50.288;28.624;2022-11-14T00:17:52;14.66;;;7.09;;
60336;SDS011;46978;50.288;28.624;2022-11-14T00:18:54;14.19;;;6.83;;
60336;SDS011;46978;50.288;28.624;2022-11-14T00:19:56;13.77;;;6.63;;
60336;SDS011;46978;50.288;28.624;2022-11-14T00:20:57;11.99;;;6.13;;
60336;SDS011;46978;50.288;28.624;2022-11-14T00:21:59;13.66;;;6.61;;
60336;SDS011;46978;50.288;28.624;2022-11-14T00:23:01;13.15;;;6.03;;
60336;SDS011;46978;50.288;28.624;2022-11-14T00:24:03;11.45;;;6.16;;
60336;SDS011;46978;50.288;28.624;2022-11-14T00:25:05;12.42;;;6.24;;
60336;SDS011;46978;50.288;28.624;2022-11-14T00:26:09;12.25;;;6.31;;
60336;SDS011;46978;50.288;28.624;2022-11-14T00:27:11;12.42;;;6.14;;
60336;SDS011;46978;50.288;28.624;2022-11-14T00:28:13;10.70;;;5.35;;
60336;SDS011;46978;50.288;28.624;2022-11-14T00:29:15;11.83;;;5.85;;
60336;SDS011;46978;50.288;28.624;2022-11-14T00:30:17;8.89;;;5.74;;
60336;SDS011;46978;50.288;28.624;2022-11-14T00:31:19;12.05;;;6.00;;
60336;SDS011;46978;50.288;28.624;2022-11-14T00:32:21;11.93;;;6.30;;
60336;SDS011;46978;50.288;28.624;2022-11-14T00:33:23;11.61;;;5.77;;
60336;SDS011;46978;50.288;28.624;2022-11-14T00:34:25;10.73;;;5.41;;
60336;SDS011;46978;50.288;28.624;2022-11-14T00:35:26;13.07;;;5.85;;
60336;SDS011;46978;50.288;28.624;2022-11-14T00:36:28;9.23;;;4.94;;
60336;SDS011;46978;50.288;28.624;2022-11-14T00:37:30;11.85;;;5.27;;
60336;SDS011;46978;50.288;28.624;2022-11-14T00:38:32;8.75;;;5.13;;
60336;SDS011;46978;50.288;28.624;2022-11-14T00:39:33;11.38;;;5.63;;
60336;SDS011;46978;50.288;28.624;2022-11-14T00:40:35;8.96;;;5.39;;
60336;SDS011;46978;50.288;28.624;2022-11-14T00:41:37;11.65;;;5.38;;
60336;SDS011;46978;50.288;28.624;2022-11-14T00:42:39;12.37;;;5.63;;
60336;SDS011;46978;50.288;28.624;2022-11-14T00:43:41;9.87;;;5.85;;
60336;SDS011;46978;50.288;28.624;2022-11-14T00:44:43;10.22;;;5.07;;
60336;SDS011;46978;50.288;28.624;2022-11-14T00:45:45;12.44;;;6.04;;
60336;SDS011;46978;50.288;28.624;2022-11-14T00:46:48;9.78;;;5.51;;
60336;SDS011;46978;50.288;28.624;2022-11-14T00:47:49;11.24;;;5.67;;
60336;SDS011;46978;50.288;28.624;2022-11-14T00:48:51;11.81;;;6.18;;
60336;SDS011;46978;50.288;28.624;2022-11-14T00:49:53;10.52;;;5.96;;
60336;SDS011;46978;50.288;28.624;2022-11-14T00:50:54;10.69;;;5.61;;
60336;SDS011;46978;50.288;28.624;2022-11-14T00:51:56;11.39;;;6.27;;
60336;SDS011;46978;50.288;28.624;2022-11-14T00:52:58;9.96;;;5.86;;
60336;SDS011;46978;50.288;28.624;2022-11-14T00:53:59;11.61;;;6.49;;
60336;SDS011;46978;50.288;28.624;2022-11-14T00:55:01;10.69;;;5.43;;
60336;SDS011;46978;50.288;28.624;2022-11-14T00:56:04;10.99;;;5.93;;
60336;SDS011;46978;50.288;28.624;2022-11-14T00:57:06;9.12;;;5.53;;
60336;SDS011;46978;50.288;28.624;2022-11-14T00:58:08;9.40;;;5.48;;
60336;SDS011;46978;50.288;28.624;2022-11-14T00:59:10;10.61;;;6.15;;
60336;SDS011;46978;50.288;28.624;2022-11-14T01:00:13;10.99;;;5.88;;
60336;SDS011;46978;50.288;28.624;2022-11-14T01:01:15;13.19;;;6.40;;
60336;SDS011;46978;50.288;28.624;2022-11-14T01:02:17;11.79;;;6.17;;
60336;SDS011;46978;50.288;28.624;2022-11-14T01:03:19;11.09;;;5.89;;
60336;SDS011;46978;50.288;28.624;2022-11-14T01:04:20;10.68;;;5.97;;
60336;SDS011;46978;50.288;28.624;2022-11-14T01:05:23;12.48;;;6.49;;
60336;SDS011;46978;50.288;28.624;2022-11-14T01:06:25;13.21;;;6.56;;
60336;SDS011;46978;50.288;28.624;2022-11-14T01:07:27;14.69;;;6.92;;
60336;SDS011;46978;50.288;28.624;2022-11-14T01:08:28;10.90;;;6.19;;
60336;SDS011;46978;50.288;28.624;2022-11-14T01:09:30;13.61;;;6.76;;
60336;SDS011;46978;50.288;28.624;2022-11-14T01:10:32;13.79;;;6.79;;
60336;SDS011;46978;50.288;28.624;2022-11-14T01:11:34;11.24;;;5.95;;
60336;SDS011;46978;50.288;28.624;2022-11-14T01:12:36;12.76;;;6.74;;
60336;SDS011;46978;50.288;28.624;2022-11-14T01:13:37;12.80;;;6.55;;
60336;SDS011;46978;50.288;28.624;2022-11-14T01:14:40;9.06;;;5.67;;
60336;SDS011;46978;50.288;28.624;2022-11-14T01:15:42;10.59;;;5.44;;
60336;SDS011;46978;50.288;28.624;2022-11-14T01:16:46;10.28;;;5.54;;
60336;SDS011;46978;50.288;28.624;2022-11-14T01:17:48;10.84;;;5.50;;
60336;SDS011;46978;50.288;28.624;2022-11-14T01:18:49;14.68;;;8.14;;
60336;SDS011;46978;50.288;28.624;2022-11-14T01:19:51;12.77;;;6.51;;
60336;SDS011;46978;50.288;28.624;2022-11-14T01:20:53;12.03;;;6.37;;
60336;SDS011;46978;50.288;28.624;2022-11-14T01:21:55;12.80;;;6.60;;
60336;SDS011;46978;50.288;28.624;2022-11-14T01:22:56;17.28;;;7.16;;
60336;SDS011;46978;50.288;28.624;2022-11-14T01:23:58;15.95;;;7.13;;
60336;SDS011;46978;50.288;28.624;2022-11-14T01:25:00;19.53;;;7.77;;
60336;SDS011;46978;50.288;28.624;2022-11-14T01:26:03;15.34;;;7.45;;
60336;SDS011;46978;50.288;28.624;2022-11-14T01:27:06;11.84;;;5.72;;
60336;SDS011;46978;50.288;28.624;2022-11-14T01:28:09;13.68;;;6.71;;
60336;SDS011;46978;50.288;28.624;2022-11-14T01:29:13;14.09;;;7.13;;
60336;SDS011;46978;50.288;28.624;2022-11-14T01:30:15;12.80;;;6.61;;
60336;SDS011;46978;50.288;28.624;2022-11-14T01:32:22;10.46;;;6.38;;
60336;SDS011;46978;50.288;28.624;2022-11-14T01:33:25;11.96;;;5.86;;
60336;SDS011;46978;50.288;28.624;2022-11-14T01:34:27;11.90;;;5.81;;
60336;SDS011;46978;50.288;28.624;2022-11-14T01:35:29;11.07;;;5.94;;
60336;SDS011;46978;50.288;28.624;2022-11-14T01:36:32;9.32;;;5.49;;
60336;SDS011;46978;50.288;28.624;2022-11-14T01:37:34;13.53;;;6.25;;
60336;SDS011;46978;50.288;28.624;2022-11-14T01:38:36;13.64;;;6.65;;
60336;SDS011;46978;50.288;28.624;2022-11-14T01:39:38;12.31;;;6.99;;
60336;SDS011;46978;50.288;28.624;2022-11-14T01:40:41;10.82;;;6.39;;
60336;SDS011;46978;50.288;28.624;2022-11-14T01:41:44;13.08;;;5.80;;
60336;SDS011;46978;50.288;28.624;2022-11-14T01:45:52;12.88;;;6.52;;
60336;SDS011;46978;50.288;28.624;2022-11-14T01:46:59;14.68;;;6.42;;
60336;SDS011;46978;50.288;28.624;2022-11-14T01:48:01;12.85;;;7.10;;
60336;SDS011;46978;50.288;28.624;2022-11-14T01:49:20;13.11;;;6.91;;
60336;SDS011;46978;50.288;28.624;2022-11-14T01:50:23;14.21;;;7.26;;
60336;SDS011;46978;50.288;28.624;2022-11-14T01:51:41;15.56;;;7.31;;
60336;SDS011;46978;50.288;28.624;2022-11-14T01:52:45;12.34;;;6.73;;
60336;SDS011;46978;50.288;28.624;2022-11-14T01:53:47;13.23;;;6.96;;
60336;SDS011;46978;50.288;28.624;2022-11-14T01:54:52;13.21;;;6.89;;
60336;SDS011;46978;50.288;28.624;2022-11-14T01:55:57;13.39;;;7.29;;
60336;SDS011;46978;50.288;28.624;2022-11-14T01:57:02;11.51;;;6.18;;
60336;SDS011;46978;50.288;28.624;2022-11-14T01:58:05;14.89;;;7.19;;
60336;SDS011;46978;50.288;28.624;2022-11-14T01:59:09;12.65;;;6.49;;
60336;SDS011;46978;50.288;28.624;2022-11-14T02:00:12;12.79;;;6.94;;
60336;SDS011;46978;50.288;28.624;2022-11-14T02:01:15;14.43;;;6.77;;
60336;SDS011;46978;50.288;28.624;2022-11-14T02:02:18;11.67;;;6.72;;
60336;SDS011;46978;50.288;28.624;2022-11-14T02:03:21;11.74;;;6.84;;
60336;SDS011;46978;50.288;28.624;2022-11-14T02:04:31;13.67;;;6.97;;
60336;SDS011;46978;50.288;28.624;2022-11-14T02:05:32;13.99;;;7.06;;
60336;SDS011;46978;50.288;28.624;2022-11-14T02:06:35;12.78;;;6.53;;
60336;SDS011;46978;50.288;28.624;2022-11-14T02:07:38;15.79;;;7.13;;
60336;SDS011;46978;50.288;28.624;2022-11-14T02:08:41;16.12;;;6.28;;
60336;SDS011;46978;50.288;28.624;2022-11-14T02:09:45;12.84;;;6.61;;
60336;SDS011;46978;50.288;28.624;2022-11-14T02:10:48;13.98;;;6.93;;
60336;SDS011;46978;50.288;28.624;2022-11-14T02:11:50;13.75;;;6.16;;
60336;SDS011;46978;50.288;28.624;2022-11-14T02:12:55;12.34;;;6.62;;
60336;SDS011;46978;50.288;28.624;2022-11-14T02:13:57;13.58;;;6.88;;
60336;SDS011;46978;50.288;28.624;2022-11-14T02:14:59;11.70;;;6.61;;
60336;SDS011;46978;50.288;28.624;2022-11-14T02:16:03;13.88;;;6.46;;
60336;SDS011;46978;50.288;28.624;2022-11-14T02:17:06;13.75;;;6.35;;
60336;SDS011;46978;50.288;28.624;2022-11-14T02:18:08;14.07;;;6.52;;
60336;SDS011;46978;50.288;28.624;2022-11-14T02:19:10;11.79;;;6.41;;
60336;SDS011;46978;50.288;28.624;2022-11-14T02:20:19;14.93;;;6.23;;
60336;SDS011;46978;50.288;28.624;2022-11-14T02:21:24;11.29;;;6.17;;
60336;SDS011;46978;50.288;28.624;2022-11-14T02:22:26;12.08;;;6.06;;
60336;SDS011;46978;50.288;28.624;2022-11-14T02:23:28;11.71;;;5.46;;
60336;SDS011;46978;50.288;28.624;2022-11-14T02:24:31;13.35;;;6.45;;
60336;SDS011;46978;50.288;28.624;2022-11-14T02:25:33;16.01;;;8.26;;
60336;SDS011;46978;50.288;28.624;2022-11-14T02:26:35;12.57;;;6.98;;
60336;SDS011;46978;50.288;28.624;2022-11-14T02:27:38;18.17;;;9.42;;
60336;SDS011;46978;50.288;28.624;2022-11-14T02:28:41;16.56;;;9.31;;
60336;SDS011;46978;50.288;28.624;2022-11-14T02:29:43;12.63;;;6.78;;
60336;SDS011;46978;50.288;28.624;2022-11-14T02:30:45;10.47;;;6.04;;
60336;SDS011;46978;50.288;28.624;2022-11-14T02:31:47;8.96;;;5.40;;
60336;SDS011;46978;50.288;28.624;2022-11-14T02:32:48;11.63;;;5.97;;
60336;SDS011;46978;50.288;28.624;2022-11-14T02:33:50;10.47;;;5.48;;
60336;SDS011;46978;50.288;28.624;2022-11-14T02:34:52;10.93;;;5.69;;
60336;SDS011;46978;50.288;28.624;2022-11-14T02:35:53;12.06;;;5.79;;
60336;SDS011;46978;50.288;28.624;2022-11-14T02:36:55;11.61;;;6.11;;
60336;SDS011;46978;50.288;28.624;2022-11-14T02:37:57;10.37;;;5.68;;
60336;SDS011;46978;50.288;28.624;2022-11-14T02:38:59;11.83;;;5.81;;
60336;SDS011;46978;50.288;28.624;2022-11-14T02:40:01;10.06;;;5.80;;
60336;SDS011;46978;50.288;28.624;2022-11-14T02:41:03;14.97;;;7.29;;
60336;SDS011;46978;50.288;28.624;2022-11-14T02:42:05;13.85;;;6.32;;
60336;SDS011;46978;50.288;28.624;2022-11-14T02:43:07;13.61;;;7.09;;
60336;SDS011;46978;50.288;28.624;2022-11-14T02:44:09;13.43;;;6.95;;
60336;SDS011;46978;50.288;28.624;2022-11-14T02:45:10;12.34;;;6.86;;
60336;SDS011;46978;50.288;28.624;2022-11-14T02:46:15;14.93;;;6.77;;
60336;SDS011;46978;50.288;28.624;2022-11-14T02:47:16;15.69;;;7.19;;
60336;SDS011;46978;50.288;28.624;2022-11-14T02:48:18;17.30;;;7.34;;
60336;SDS011;46978;50.288;28.624;2022-11-14T02:49:20;11.28;;;6.31;;
60336;SDS011;46978;50.288;28.624;2022-11-14T02:50:22;14.20;;;6.48;;
60336;SDS011;46978;50.288;28.624;2022-11-14T02:51:25;15.91;;;7.66;;
60336;SDS011;46978;50.288;28.624;2022-11-14T02:52:47;17.93;;;8.37;;
60336;SDS011;46978;50.288;28.624;2022-11-14T02:53:54;16.40;;;7.34;;
60336;SDS011;46978;50.288;28.624;2022-11-14T02:55:03;13.52;;;6.94;;
60336;SDS011;46978;50.288;28.624;2022-11-14T02:56:06;12.55;;;6.97;;
60336;SDS011;46978;50.288;28.624;2022-11-14T02:57:07;14.63;;;7.09;;
60336;SDS011;46978;50.288;28.624;2022-11-14T02:58:09;12.80;;;7.10;;
60336;SDS011;46978;50.288;28.624;2022-11-14T02:59:11;13.61;;;6.32;;
60336;SDS011;46978;50.288;28.624;2022-11-14T03:00:14;14.11;;;6.25;;
60336;SDS011;46978;50.288;28.624;2022-11-14T03:01:17;13.43;;;6.69;;
60336;SDS011;46978;50.288;28.624;2022-11-14T03:02:19;14.33;;;6.59;;
60336;SDS011;46978;50.288;28.624;2022-11-14T03:03:20;13.41;;;6.00;;
60336;SDS011;46978;50.288;28.624;2022-11-14T03:04:22;12.23;;;6.25;;
60336;SDS011;46978;50.288;28.624;2022-11-14T03:05:24;12.15;;;6.02;;
60336;SDS011;46978;50.288;28.624;2022-11-14T03:06:26;13.45;;;6.62;;
60336;SDS011;46978;50.288;28.624;2022-11-14T03:07:27;12.87;;;6.50;;
60336;SDS011;46978;50.288;28.624;2022-11-14T03:08:29;18.88;;;7.53;;
60336;SDS011;46978;50.288;28.624;2022-11-14T03:09:31;14.10;;;7.05;;
60336;SDS011;46978;50.288;28.624;2022-11-14T03:10:33;15.32;;;6.69;;
60336;SDS011;46978;50.288;28.624;2022-11-14T03:11:35;16.33;;;7.52;;
60336;SDS011;46978;50.288;28.624;2022-11-14T03:12:36;14.89;;;6.95;;
60336;SDS011;46978;50.288;28.624;2022-11-14T03:13:38;15.71;;;7.33;;
60336;SDS011;46978;50.288;28.624;2022-11-14T03:14:40;13.11;;;6.77;;
60336;SDS011;46978;50.288;28.624;2022-11-14T03:15:41;16.85;;;7.23;;
60336;SDS011;46978;50.288;28.624;2022-11-14T03:16:43;15.41;;;7.49;;
60336;SDS011;46978;50.288;28.624;2022-11-14T03:17:45;12.06;;;6.56;;
60336;SDS011;46978;50.288;28.624;2022-11-14T03:18:47;11.33;;;5.73;;
60336;SDS011;46978;50.288;28.624;2022-11-14T03:19:49;14.64;;;6.76;;
60336;SDS011;46978;50.288;28.624;2022-11-14T03:20:51;13.65;;;6.25;;
60336;SDS011;46978;50.288;28.624;2022-11-14T03:21:52;12.61;;;6.66;;
60336;SDS011;46978;50.288;28.624;2022-11-14T03:22:54;16.46;;;6.54;;
60336;SDS011;46978;50.288;28.624;2022-11-14T03:23:56;11.25;;;6.23;;
60336;SDS011;46978;50.288;28.624;2022-11-14T03:24:58;10.52;;;5.89;;
60336;SDS011;46978;50.288;28.624;2022-11-14T03:26:00;13.96;;;5.89;;
60336;SDS011;46978;50.288;28.624;2022-11-14T03:27:02;13.81;;;6.09;;
60336;SDS011;46978;50.288;28.624;2022-11-14T03:28:04;12.11;;;6.06;;
60336;SDS011;46978;50.288;28.624;2022-11-14T03:29:06;14.77;;;6.77;;
60336;SDS011;46978;50.288;28.624;2022-11-14T03:30:09;14.77;;;7.24;;
60336;SDS011;46978;50.288;28.624;2022-11-14T03:31:12;12.44;;;6.26;;
60336;SDS011;46978;50.288;28.624;2022-11-14T03:32:14;11.84;;;6.23;;
60336;SDS011;46978;50.288;28.624;2022-11-14T03:33:17;11.62;;;5.86;;
60336;SDS011;46978;50.288;28.624;2022-11-14T03:34:18;12.40;;;6.15;;
60336;SDS011;46978;50.288;28.624;2022-11-14T03:35:20;18.93;;;6.97;;
60336;SDS011;46978;50.288;28.624;2022-11-14T03:36:22;13.97;;;6.87;;
60336;SDS011;46978;50.288;28.624;2022-11-14T03:37:24;15.15;;;7.27;;
60336;SDS011;46978;50.288;28.624;2022-11-14T03:38:26;13.67;;;7.03;;
60336;SDS011;46978;50.288;28.624;2022-11-14T03:39:28;13.13;;;6.83;;
60336;SDS011;46978;50.288;28.624;2022-11-14T03:40:30;15.23;;;6.99;;
60336;SDS011;46978;50.288;28.624;2022-11-14T03:41:32;13.21;;;7.10;;
60336;SDS011;46978;50.288;28.624;2022-11-14T03:42:33;14.09;;;6.99;;
60336;SDS011;46978;50.288;28.624;2022-11-14T03:43:36;13.26;;;6.65;;
60336;SDS011;46978;50.288;28.624;2022-11-14T03:44:37;13.66;;;6.74;;
60336;SDS011;46978;50.288;28.624;2022-11-14T03:45:40;13.75;;;6.80;;
60336;SDS011;46978;50.288;28.624;2022-11-14T03:46:41;11.87;;;6.71;;
60336;SDS011;46978;50.288;28.624;2022-11-14T03:47:43;12.06;;;6.38;;
60336;SDS011;46978;50.288;28.624;2022-11-14T03:48:45;13.09;;;6.82;;
60336;SDS011;46978;50.288;28.624;2022-11-14T03:49:47;11.09;;;6.21;;
60336;SDS011;46978;50.288;28.624;2022-11-14T03:50:49;9.89;;;5.85;;
60336;SDS011;46978;50.288;28.624;2022-11-14T03:51:50;11.03;;;6.13;;
60336;SDS011;46978;50.288;28.624;2022-11-14T03:52:52;13.03;;;6.09;;
60336;SDS011;46978;50.288;28.624;2022-11-14T03:53:54;12.91;;;6.28;;
60336;SDS011;46978;50.288;28.624;2022-11-14T03:54:55;12.11;;;6.35;;
60336;SDS011;46978;50.288;28.624;2022-11-14T03:55:57;11.44;;;6.05;;
60336;SDS011;46978;50.288;28.624;2022-11-14T03:56:59;14.13;;;6.09;;
60336;SDS011;46978;50.288;28.624;2022-11-14T03:58:01;11.34;;;5.96;;
60336;SDS011;46978;50.288;28.624;2022-11-14T03:59:03;9.92;;;5.62;;
60336;SDS011;46978;50.288;28.624;2022-11-14T04:00:05;10.76;;;5.66;;
60336;SDS011;46978;50.288;28.624;2022-11-14T04:01:08;10.79;;;5.57;;
60336;SDS011;46978;50.288;28.624;2022-11-14T04:02:09;11.43;;;5.52;;
60336;SDS011;46978;50.288;28.624;2022-11-14T04:03:11;10.46;;;5.94;;
60336;SDS011;46978;50.288;28.624;2022-11-14T04:04:13;13.68;;;6.31;;
60336;SDS011;46978;50.288;28.624;2022-11-14T04:05:15;11.54;;;6.01;;
60336;SDS011;46978;50.288;28.624;2022-11-14T04:06:17;10.11;;;5.49;;
60336;SDS011;46978;50.288;28.624;2022-11-14T04:07:19;12.14;;;5.67;;
60336;SDS011;46978;50.288;28.624;2022-11-14T04:08:21;9.43;;;5.55;;
60336;SDS011;46978;50.288;28.624;2022-11-14T04:09:22;10.97;;;5.42;;
60336;SDS011;46978;50.288;28.624;2022-11-14T04:10:24;12.03;;;5.51;;
60336;SDS011;46978;50.288;28.624;2022-11-14T04:11:26;9.67;;;5.63;;
60336;SDS011;46978;50.288;28.624;2022-11-14T04:12:28;10.82;;;5.81;;
60336;SDS011;46978;50.288;28.624;2022-11-14T04:13:30;13.86;;;5.77;;
60336;SDS011;46978;50.288;28.624;2022-11-14T04:14:31;12.02;;;5.33;;
60336;SDS011;46978;50.288;28.624;2022-11-14T04:15:33;19.46;;;7.69;;
60336;SDS011;46978;50.288;28.624;2022-11-14T04:16:36;18.19;;;8.18;;
60336;SDS011;46978;50.288;28.624;2022-11-14T04:17:37;16.12;;;6.14;;
60336;SDS011;46978;50.288;28.624;2022-11-14T04:18:39;14.69;;;6.87;;
60336;SDS011;46978;50.288;28.624;2022-11-14T04:19:41;13.43;;;6.34;;
60336;SDS011;46978;50.288;28.624;2022-11-14T04:20:43;13.41;;;6.04;;
60336;SDS011;46978;50.288;28.624;2022-11-14T04:21:44;13.14;;;6.63;;
60336;SDS011;46978;50.288;28.624;2022-11-14T04:22:46;15.81;;;8.10;;
60336;SDS011;46978;50.288;28.624;2022-11-14T04:23:48;15.03;;;6.63;;
60336;SDS011;46978;50.288;28.624;2022-11-14T04:24:50;19.59;;;5.97;;
60336;SDS011;46978;50.288;28.624;2022-11-14T04:25:51;22.66;;;7.61;;
60336;SDS011;46978;50.288;28.624;2022-11-14T04:26:53;15.59;;;5.97;;
60336;SDS011;46978;50.288;28.624;2022-11-14T04:27:55;21.61;;;7.29;;
60336;SDS011;46978;50.288;28.624;2022-11-14T04:28:56;15.06;;;6.46;;
60336;SDS011;46978;50.288;28.624;2022-11-14T04:29:58;16.05;;;6.66;;
60336;SDS011;46978;50.288;28.624;2022-11-14T04:31:00;15.55;;;6.48;;
60336;SDS011;46978;50.288;28.624;2022-11-14T04:32:02;21.30;;;8.12;;
60336;SDS011;46978;50.288;28.624;2022-11-14T04:33:05;25.91;;;7.79;;
60336;SDS011;46978;50.288;28.624;2022-11-14T04:34:07;26.05;;;7.35;;
60336;SDS011;46978;50.288;28.624;2022-11-14T04:35:08;36.08;;;6.91;;
60336;SDS011;46978;50.288;28.624;2022-11-14T04:36:11;30.64;;;7.53;;
60336;SDS011;46978;50.288;28.624;2022-11-14T04:37:12;21.78;;;6.74;;
60336;SDS011;46978;50.288;28.624;2022-11-14T04:38:14;17.36;;;6.32;;
60336;SDS011;46978;50.288;28.624;2022-11-14T04:39:16;10.07;;;5.65;;
60336;SDS011;46978;50.288;28.624;2022-11-14T04:40:19;11.56;;;6.20;;
60336;SDS011;46978;50.288;28.624;2022-11-14T04:41:20;11.11;;;5.81;;
60336;SDS011;46978;50.288;28.624;2022-11-14T04:42:22;14.51;;;6.73;;
60336;SDS011;46978;50.288;28.624;2022-11-14T04:43:24;18.27;;;9.20;;
60336;SDS011;46978;50.288;28.624;2022-11-14T04:44:26;17.49;;;7.52;;
60336;SDS011;46978;50.288;28.624;2022-11-14T04:45:28;15.99;;;6.69;;
60336;SDS011;46978;50.288;28.624;2022-11-14T04:46:30;17.53;;;8.23;;
60336;SDS011;46978;50.288;28.624;2022-11-14T04:47:31;19.63;;;8.12;;
60336;SDS011;46978;50.288;28.624;2022-11-14T04:48:33;24.21;;;8.85;;
60336;SDS011;46978;50.288;28.624;2022-11-14T04:49:35;24.35;;;8.11;;
60336;SDS011;46978;50.288;28.624;2022-11-14T04:50:37;19.57;;;8.11;;
60336;SDS011;46978;50.288;28.624;2022-11-14T04:51:39;25.24;;;8.87;;
60336;SDS011;46978;50.288;28.624;2022-11-14T04:52:40;25.19;;;8.87;;
60336;SDS011;46978;50.288;28.624;2022-11-14T04:53:42;16.56;;;7.97;;
60336;SDS011;46978;50.288;28.624;2022-11-14T04:54:44;19.76;;;8.73;;
60336;SDS011;46978;50.288;28.624;2022-11-14T04:55:46;22.94;;;7.99;;
60336;SDS011;46978;50.288;28.624;2022-11-14T04:56:47;30.61;;;11.68;;
60336;SDS011;46978;50.288;28.624;2022-11-14T04:57:56;27.17;;;9.91;;
60336;SDS011;46978;50.288;28.624;2022-11-14T04:58:58;72.22;;;22.16;;
60336;SDS011;46978;50.288;28.624;2022-11-14T05:00:00;50.75;;;16.93;;
60336;SDS011;46978;50.288;28.624;2022-11-14T05:01:12;50.87;;;15.33;;
60336;SDS011;46978;50.288;28.624;2022-11-14T05:02:13;37.88;;;11.16;;
60336;SDS011;46978;50.288;28.624;2022-11-14T05:03:14;27.57;;;10.93;;
60336;SDS011;46978;50.288;28.624;2022-11-14T05:04:16;30.42;;;12.15;;
60336;SDS011;46978;50.288;28.624;2022-11-14T05:05:18;23.00;;;10.25;;
60336;SDS011;46978;50.288;28.624;2022-11-14T05:06:20;17.51;;;7.84;;
60336;SDS011;46978;50.288;28.624;2022-11-14T05:07:22;14.76;;;8.01;;
60336;SDS011;46978;50.288;28.624;2022-11-14T05:08:24;14.70;;;7.44;;
60336;SDS011;46978;50.288;28.624;2022-11-14T05:09:25;14.98;;;7.16;;
60336;SDS011;46978;50.288;28.624;2022-11-14T05:10:27;14.23;;;7.65;;
60336;SDS011;46978;50.288;28.624;2022-11-14T05:11:28;11.68;;;6.54;;
60336;SDS011;46978;50.288;28.624;2022-11-14T05:12:30;15.08;;;6.81;;
60336;SDS011;46978;50.288;28.624;2022-11-14T05:13:32;17.99;;;7.12;;
60336;SDS011;46978;50.288;28.624;2022-11-14T05:14:34;17.84;;;7.09;;
60336;SDS011;46978;50.288;28.624;2022-11-14T05:15:36;13.48;;;6.29;;
60336;SDS011;46978;50.288;28.624;2022-11-14T05:16:38;19.11;;;8.11;;
60336;SDS011;46978;50.288;28.624;2022-11-14T05:17:40;13.45;;;6.89;;
60336;SDS011;46978;50.288;28.624;2022-11-14T05:18:41;12.08;;;6.21;;
60336;SDS011;46978;50.288;28.624;2022-11-14T05:19:43;13.02;;;6.81;;
60336;SDS011;46978;50.288;28.624;2022-11-14T05:20:45;13.86;;;6.22;;
60336;SDS011;46978;50.288;28.624;2022-11-14T05:21:46;12.15;;;6.81;;
60336;SDS011;46978;50.288;28.624;2022-11-14T05:22:51;16.13;;;7.19;;
60336;SDS011;46978;50.288;28.624;2022-11-14T05:23:55;14.68;;;7.19;;
60336;SDS011;46978;50.288;28.624;2022-11-14T05:24:57;16.52;;;7.41;;
60336;SDS011;46978;50.288;28.624;2022-11-14T05:26:03;13.30;;;7.09;;
60336;SDS011;46978;50.288;28.624;2022-11-14T05:27:07;13.41;;;6.62;;
60336;SDS011;46978;50.288;28.624;2022-11-14T05:28:09;19.79;;;7.78;;
60336;SDS011;46978;50.288;28.624;2022-11-14T05:29:10;20.75;;;7.77;;
60336;SDS011;46978;50.288;28.624;2022-11-14T05:30:13;15.40;;;7.75;;
60336;SDS011;46978;50.288;28.624;2022-11-14T05:31:15;16.16;;;7.52;;
60336;SDS011;46978;50.288;28.624;2022-11-14T05:32:17;22.84;;;9.45;;
60336;SDS011;46978;50.288;28.624;2022-11-14T05:33:19;14.89;;;7.69;;
60336;SDS011;46978;50.288;28.624;2022-11-14T05:34:20;14.27;;;7.20;;
60336;SDS011;46978;50.288;28.624;2022-11-14T05:35:22;15.96;;;7.40;;
60336;SDS011;46978;50.288;28.624;2022-11-14T05:36:24;19.61;;;8.11;;
60336;SDS011;46978;50.288;28.624;2022-11-14T05:37:26;18.87;;;7.92;;
60336;SDS011;46978;50.288;28.624;2022-11-14T05:38:28;14.89;;;7.11;;
60336;SDS011;46978;50.288;28.624;2022-11-14T05:39:30;16.15;;;7.66;;
60336;SDS011;46978;50.288;28.624;2022-11-14T05:40:33;14.26;;;7.04;;
60336;SDS011;46978;50.288;28.624;2022-11-14T05:41:45;14.69;;;7.33;;
60336;SDS011;46978;50.288;28.624;2022-11-14T05:42:47;14.89;;;7.71;;
60336;SDS011;46978;50.288;28.624;2022-11-14T05:43:49;15.46;;;8.23;;
60336;SDS011;46978;50.288;28.624;2022-11-14T05:44:50;16.78;;;7.40;;
60336;SDS011;46978;50.288;28.624;2022-11-14T05:45:52;15.41;;;7.16;;
60336;SDS011;46978;50.288;28.624;2022-11-14T05:46:54;16.51;;;7.57;;
60336;SDS011;46978;50.288;28.624;2022-11-14T05:47:56;22.10;;;10.15;;
60336;SDS011;46978;50.288;28.624;2022-11-14T05:48:58;18.00;;;8.18;;
60336;SDS011;46978;50.288;28.624;2022-11-14T05:50:00;17.86;;;8.69;;
60336;SDS011;46978;50.288;28.624;2022-11-14T05:51:03;17.11;;;7.97;;
60336;SDS011;46978;50.288;28.624;2022-11-14T05:52:10;17.66;;;8.86;;
60336;SDS011;46978;50.288;28.624;2022-11-14T05:53:12;17.43;;;7.97;;
60336;SDS011;46978;50.288;28.624;2022-11-14T05:54:14;14.81;;;7.56;;
60336;SDS011;46978;50.288;28.624;2022-11-14T05:55:15;13.20;;;6.68;;
60336;SDS011;46978;50.288;28.624;2022-11-14T05:56:17;12.93;;;6.20;;
60336;SDS011;46978;50.288;28.624;2022-11-14T05:57:19;14.61;;;6.86;;
60336;SDS011;46978;50.288;28.624;2022-11-14T05:58:21;13.07;;;6.20;;
60336;SDS011;46978;50.288;28.624;2022-11-14T05:59:22;16.51;;;7.09;;
60336;SDS011;46978;50.288;28.624;2022-11-14T06:00:25;16.18;;;7.29;;
60336;SDS011;46978;50.288;28.624;2022-11-14T06:01:28;17.10;;;7.75;;
60336;SDS011;46978;50.288;28.624;2022-11-14T06:02:29;22.03;;;9.63;;
60336;SDS011;46978;50.288;28.624;2022-11-14T06:03:32;24.77;;;9.69;;
60336;SDS011;46978;50.288;28.624;2022-11-14T06:04:34;23.39;;;9.48;;
60336;SDS011;46978;50.288;28.624;2022-11-14T06:05:36;15.58;;;8.09;;
60336;SDS011;46978;50.288;28.624;2022-11-14T06:06:38;15.74;;;7.33;;
60336;SDS011;46978;50.288;28.624;2022-11-14T06:07:40;15.41;;;6.99;;
60336;SDS011;46978;50.288;28.624;2022-11-14T06:08:42;13.48;;;6.41;;